Time;durP1;ratioP1;P1;durP2;ratioP2;P2;SDS_P1;SDS_P2;PMS_P1;PMS_P2;Temp;Humidity;BMP_temperature;BMP_pressure;BME280_temperature;BME280_humidity;BME280_pressure;Samples;Min_cycle;Max_cycle;Signal;HPM_P1;HPM_P2
2022/12/12 00:00:48;;;;;;;25.02;13.32;;;1.80;99.90;;;;;;5108759;27;20043;-79
2022/12/12 00:03:13;;;;;;;23.27;12.88;;;0.50;99.90;;;;;;5109587;27;20059;-79
2022/12/12 00:05:39;;;;;;;26.83;12.82;;;0.50;99.90;;;;;;5127085;27;20054;-79
2022/12/12 00:08:05;;;;;;;27.00;13.75;;;1.80;99.90;;;;;;5092258;27;20074;-79
2022/12/12 00:10:31;;;;;;;31.00;14.88;;;0.90;99.90;;;;;;5109013;27;20128;-79
2022/12/12 00:12:57;;;;;;;23.48;13.55;;;0.60;99.90;;;;;;5128479;27;20035;-78
2022/12/12 00:15:23;;;;;;;29.65;13.20;;;0.50;99.90;;;;;;5109786;27;20139;-79
2022/12/12 00:17:49;;;;;;;26.90;15.05;;;0.60;99.90;;;;;;5108296;27;20046;-79
2022/12/12 00:20:14;;;;;;;26.80;13.05;;;0.60;99.90;;;;;;5109638;27;20082;-79
2022/12/12 00:22:40;;;;;;;30.13;14.43;;;1.30;99.90;;;;;;5108621;27;20039;-79
2022/12/12 00:25:06;;;;;;;25.55;14.82;;;0.60;99.90;;;;;;5109521;27;20055;-79
2022/12/12 00:27:32;;;;;;;25.27;14.30;;;0.50;99.90;;;;;;5108935;27;20119;-79
2022/12/12 00:29:58;;;;;;;28.15;15.20;;;0.60;99.90;;;;;;5092785;27;20039;-79
2022/12/12 00:32:24;;;;;;;27.85;13.45;;;0.60;99.90;;;;;;5127866;27;20475;-79
2022/12/12 00:34:50;;;;;;;28.92;14.60;;;0.60;99.90;;;;;;5126950;27;20043;-79
2022/12/12 00:37:16;;;;;;;26.63;13.90;;;0.60;99.90;;;;;;5109297;27;20043;-79
2022/12/12 00:39:42;;;;;;;25.95;14.77;;;0.60;99.90;;;;;;5125888;27;20078;-79
2022/12/12 00:42:07;;;;;;;29.17;14.43;;;1.10;99.90;;;;;;5108818;27;20047;-79
2022/12/12 00:44:33;;;;;;;24.70;12.90;;;0.60;99.90;;;;;;5108021;27;20046;-78
2022/12/12 00:46:59;;;;;;;23.65;12.70;;;0.60;99.90;;;;;;5108947;27;20082;-79
2022/12/12 00:49:24;;;;;;;28.90;13.55;;;0.60;99.90;;;;;;5108546;27;20043;-78
2022/12/12 00:51:50;;;;;;;23.52;12.93;;;1.70;99.90;;;;;;5108203;27;20504;-78
2022/12/12 00:54:17;;;;;;;24.20;13.20;;;1.90;99.90;;;;;;5128104;27;20039;-79
2022/12/12 00:56:43;;;;;;;25.25;13.18;;;0.60;99.90;;;;;;5125981;27;20122;-80
2022/12/12 00:59:09;;;;;;;21.70;11.98;;;0.60;99.90;;;;;;5127084;27;20150;-79
2022/12/12 01:01:35;;;;;;;23.33;14.20;;;1.70;99.90;;;;;;5090302;27;20100;-79
2022/12/12 01:04:01;;;;;;;24.17;13.07;;;0.60;99.90;;;;;;5108612;28;20073;-78
2022/12/12 01:06:27;;;;;;;21.23;12.55;;;0.60;99.90;;;;;;5107298;28;20412;-79
2022/12/12 01:08:53;;;;;;;24.10;12.38;;;0.60;99.90;;;;;;5107098;28;20047;-79
2022/12/12 01:11:20;;;;;;;23.05;12.88;;;1.20;99.90;;;;;;5127159;28;20053;-79
2022/12/12 01:13:48;;;;;;;23.35;12.40;;;0.60;99.90;;;;;;5106770;28;20078;-80
2022/12/12 01:16:14;;;;;;;25.23;12.48;;;0.60;99.90;;;;;;5107911;28;20043;-79
2022/12/12 01:18:40;;;;;;;24.58;12.85;;;0.60;99.90;;;;;;5090240;28;20077;-79
2022/12/12 01:21:12;;;;;;;25.00;12.18;;;1.70;99.90;;;;;;5126582;28;20110;-79
2022/12/12 01:23:38;;;;;;;26.27;13.10;;;0.60;99.90;;;;;;5126430;28;20043;-80
2022/12/12 01:26:07;;;;;;;23.92;12.20;;;0.70;99.90;;;;;;5127168;27;20043;-79
2022/12/12 01:28:34;;;;;;;27.73;12.65;;;0.60;99.90;;;;;;5095384;27;20035;-79
2022/12/12 01:30:59;;;;;;;25.80;13.40;;;0.60;99.90;;;;;;5110658;27;20130;-80
2022/12/12 01:33:25;;;;;;;24.25;12.20;;;0.60;99.90;;;;;;5095165;27;20184;-79
2022/12/12 01:35:51;;;;;;;23.02;12.73;;;0.60;99.90;;;;;;5110612;27;20039;-79
2022/12/12 01:38:17;;;;;;;22.95;12.00;;;0.60;99.90;;;;;;5095090;27;20035;-79
2022/12/12 01:40:43;;;;;;;30.55;13.27;;;0.60;99.90;;;;;;5111800;27;20045;-79
2022/12/12 01:43:14;;;;;;;24.48;11.55;;;1.60;99.90;;;;;;5094255;27;20176;-79
2022/12/12 01:45:59;;;;;;;32.35;12.35;;;0.60;99.90;;;;;;5112263;27;20058;-79
2022/12/12 01:48:44;;;;;;;25.42;12.60;;;0.60;99.90;;;;;;5128975;27;20047;-79
2022/12/12 01:51:20;;;;;;;24.50;13.10;;;0.60;99.90;;;;;;5130801;27;20748;-80
2022/12/12 01:53:48;;;;;;;21.25;13.65;;;0.70;99.90;;;;;;5129832;27;20513;-80
2022/12/12 01:56:18;;;;;;;26.58;13.45;;;0.60;99.90;;;;;;5094106;27;20398;-79
2022/12/12 01:58:47;;;;;;;25.33;13.88;;;0.60;99.90;;;;;;5112179;27;20499;-79
2022/12/12 02:01:14;;;;;;;25.00;13.10;;;1.40;99.90;;;;;;5128217;27;20069;-80
2022/12/12 02:03:41;;;;;;;25.23;12.57;;;0.60;99.90;;;;;;5130442;27;20039;-80
2022/12/12 02:06:11;;;;;;;27.10;14.10;;;0.60;99.90;;;;;;5128453;27;20088;-79
2022/12/12 02:08:38;;;;;;;23.55;12.73;;;0.60;99.90;;;;;;5129462;27;20160;-79
2022/12/12 02:11:04;;;;;;;26.55;13.23;;;1.30;99.90;;;;;;5094454;27;20058;-79
2022/12/12 02:13:32;;;;;;;23.50;12.63;;;0.60;99.90;;;;;;5110522;27;20126;-79
2022/12/12 02:16:34;;;;;;;25.20;13.43;;;0.60;99.90;;;;;;5111708;27;20031;-78
2022/12/12 02:19:27;;;;;;;25.42;13.18;;;0.50;99.90;;;;;;5128121;27;20477;-78
2022/12/12 02:22:10;;;;;;;24.88;13.05;;;0.50;99.90;;;;;;5129162;27;20091;-80
2022/12/12 02:24:56;;;;;;;;;;;0.50;99.90;;;;;;5111815;27;20046;-78
2022/12/12 02:27:34;;;;;;;24.77;11.93;;;0.50;99.90;;;;;;5127805;27;19927;-80
2022/12/12 02:30:20;;;;;;;21.33;11.60;;;0.50;99.90;;;;;;5130352;27;20047;-79
2022/12/12 02:33:11;;;;;;;23.45;12.48;;;0.50;99.90;;;;;;5130313;27;20078;-80
2022/12/12 02:36:02;;;;;;;20.60;11.48;;;0.50;99.90;;;;;;5110565;27;20402;-80
2022/12/12 02:38:51;;;;;;;25.48;12.90;;;0.50;99.90;;;;;;5110722;27;20127;-80
2022/12/12 02:41:50;;;;;;;23.38;13.02;;;0.50;99.90;;;;;;5130390;27;20476;-80
2022/12/12 02:44:34;;;;;;;26.63;12.27;;;0.50;99.90;;;;;;5110092;27;20043;-79
2022/12/12 02:47:00;;;;;;;24.10;11.82;;;0.50;99.90;;;;;;5111696;27;20126;-79
2022/12/12 02:49:41;;;;;;;26.60;13.43;;;0.50;99.90;;;;;;5093218;27;20126;-80
2022/12/12 02:52:09;;;;;;;24.60;12.50;;;1.00;99.90;;;;;;5109793;27;20051;-80
2022/12/12 02:54:34;;;;;;;24.17;11.88;;;0.50;99.90;;;;;;5129538;27;20047;-80
2022/12/12 02:57:01;;;;;;;19.58;11.45;;;0.50;99.90;;;;;;5092309;27;20040;-80
2022/12/12 02:59:28;;;;;;;24.25;12.05;;;1.80;99.90;;;;;;5129826;27;20123;-80
2022/12/12 03:02:22;;;;;;;22.58;12.05;;;0.50;99.90;;;;;;5126862;27;20043;-80
2022/12/12 03:08:26;;;;;;;26.02;12.10;;;0.50;99.90;;;;;;5110902;27;20262;-79
2022/12/12 03:11:02;;;;;;;19.02;10.77;;;0.50;99.90;;;;;;5094554;27;20051;-80
2022/12/12 03:13:56;;;;;;;26.95;12.90;;;0.50;99.90;;;;;;5109231;27;20051;-80
2022/12/12 03:16:28;;;;;;;21.95;11.27;;;0.50;99.90;;;;;;5129380;27;20043;-80
2022/12/12 03:19:19;;;;;;;21.75;12.50;;;0.50;99.90;;;;;;5108323;27;20035;-80
2022/12/12 03:21:50;;;;;;;25.92;12.60;;;0.50;99.90;;;;;;5110250;27;20091;-80
2022/12/12 03:24:39;;;;;;;21.83;11.90;;;0.50;99.90;;;;;;5110119;27;20436;-79
2022/12/12 03:27:23;;;;;;;20.55;10.95;;;0.50;99.90;;;;;;5125705;27;20051;-79
2022/12/12 03:30:10;;;;;;;23.10;11.85;;;0.50;99.90;;;;;;5093778;27;20407;-80
2022/12/12 03:32:46;;;;;;;23.05;12.68;;;0.50;99.90;;;;;;5127680;27;20057;-80
2022/12/12 03:35:21;;;;;;;23.05;12.55;;;0.50;99.90;;;;;;5127214;27;20043;-80
2022/12/12 03:37:57;;;;;;;24.13;12.80;;;0.50;99.90;;;;;;5110469;27;20043;-80
2022/12/12 03:40:46;;;;;;;22.50;12.93;;;0.50;99.90;;;;;;5091065;27;20088;-80
2022/12/12 03:43:22;;;;;;;24.58;11.95;;;1.40;99.90;;;;;;5108597;27;20562;-80
2022/12/12 03:46:11;;;;;;;21.95;11.18;;;0.50;99.90;;;;;;5110202;27;20047;-80
2022/12/12 03:48:44;;;;;;;21.77;12.70;;;0.50;99.90;;;;;;5107431;27;20057;-80
2022/12/12 03:51:27;;;;;;;20.83;11.75;;;0.50;99.90;;;;;;5109903;27;20043;-80
2022/12/12 03:53:56;;;;;;;21.75;12.02;;;0.50;99.90;;;;;;5108431;27;20078;-80
2022/12/12 03:56:25;;;;;;;24.48;11.90;;;0.50;99.90;;;;;;5109792;27;20081;-80
2022/12/12 03:59:09;;;;;;;28.25;13.10;;;1.20;99.90;;;;;;5109674;27;20084;-80
2022/12/12 04:01:54;;;;;;;20.67;11.23;;;0.40;99.90;;;;;;5090657;27;20051;-80
2022/12/12 04:04:37;;;;;;;24.30;12.30;;;1.20;99.90;;;;;;5110081;27;20051;-80
2022/12/12 04:07:14;;;;;;;21.17;11.30;;;0.50;99.90;;;;;;5109256;27;20079;-80
2022/12/12 04:13:12;;;;;;;21.15;11.93;;;0.50;99.90;;;;;;5109926;27;20054;-80
2022/12/12 04:15:59;;;;;;;21.90;11.90;;;1.50;99.90;;;;;;5127233;27;20062;-80
2022/12/12 04:18:29;;;;;;;24.60;12.55;;;0.40;99.90;;;;;;5107977;27;20090;-80
2022/12/12 04:24:21;;;;;;;24.77;12.55;;;1.30;99.90;;;;;;5103782;27;20096;-80
2022/12/12 04:27:16;;;;;;;25.10;12.52;;;0.50;99.90;;;;;;5108558;27;20320;-80
2022/12/12 04:30:00;;;;;;;25.85;12.90;;;0.50;99.90;;;;;;5109081;27;20100;-80
2022/12/12 04:32:38;;;;;;;22.15;11.90;;;0.40;99.90;;;;;;5091161;27;20082;-80
2022/12/12 04:35:17;;;;;;;27.25;11.68;;;0.50;99.90;;;;;;5108517;27;20043;-80
2022/12/12 04:37:50;;;;;;;24.38;13.00;;;0.50;99.90;;;;;;5109656;27;20055;-80
2022/12/12 04:40:26;;;;;;;21.88;12.38;;;0.50;99.90;;;;;;5125740;27;20350;-79
2022/12/12 04:43:17;;;;;;;24.35;12.55;;;0.50;99.90;;;;;;5092196;27;20047;-80
2022/12/12 04:45:52;;;;;;;24.83;12.68;;;0.50;99.90;;;;;;5098566;27;20058;-79
2022/12/12 04:48:22;;;;;;;20.65;11.25;;;0.50;99.90;;;;;;5126297;27;20043;-80
2022/12/12 04:50:51;;;;;;;24.50;12.02;;;0.50;99.90;;;;;;5109252;27;20126;-79
2022/12/12 04:53:24;;;;;;;22.65;11.75;;;0.40;99.90;;;;;;5107358;27;20039;-79
2022/12/12 04:55:55;;;;;;;24.60;12.10;;;0.50;99.90;;;;;;5109302;28;20047;-79
2022/12/12 04:58:21;;;;;;;23.45;12.57;;;0.80;99.90;;;;;;5091064;27;20074;-80
2022/12/12 05:01:03;;;;;;;24.15;12.85;;;1.60;99.90;;;;;;5108020;27;20047;-80
2022/12/12 05:03:47;;;;;;;19.38;10.98;;;0.40;99.90;;;;;;5090798;27;20112;-80
2022/12/12 05:06:18;;;;;;;23.55;11.88;;;0.40;99.90;;;;;;5107032;28;20360;-81
2022/12/12 05:08:46;;;;;;;23.17;13.18;;;0.40;99.90;;;;;;5105492;28;20500;-80
2022/12/12 05:11:12;;;;;;;23.98;12.65;;;0.40;99.90;;;;;;5103107;28;20050;-80
2022/12/12 05:13:40;;;;;;;22.77;11.90;;;0.40;99.90;;;;;;5086773;28;20044;-77
2022/12/12 05:16:12;;;;;;;21.30;11.32;;;0.40;99.90;;;;;;5105142;28;20055;-78
2022/12/12 05:18:38;;;;;;;19.27;10.90;;;0.40;99.90;;;;;;5102990;28;20138;-79
2022/12/12 05:21:04;;;;;;;20.67;11.73;;;1.30;99.90;;;;;;5087592;28;20085;-78
2022/12/12 05:23:29;;;;;;;19.48;10.85;;;0.40;99.90;;;;;;5085789;28;20094;-79
2022/12/12 05:25:55;;;;;;;21.23;11.07;;;0.40;99.90;;;;;;5105126;28;20040;-79
2022/12/12 05:28:21;;;;;;;22.02;11.50;;;0.40;99.90;;;;;;5103703;28;20082;-79
2022/12/12 05:30:46;;;;;;;20.25;10.63;;;0.40;99.90;;;;;;5104265;28;20391;-79
2022/12/12 05:33:12;;;;;;;21.15;11.40;;;0.40;99.90;;;;;;5103683;28;20490;-79
2022/12/12 05:35:37;;;;;;;21.65;11.00;;;0.40;99.90;;;;;;5103645;28;20054;-79
2022/12/12 05:38:03;;;;;;;22.48;11.15;;;0.40;99.90;;;;;;5104205;28;20105;-79
2022/12/12 05:40:29;;;;;;;21.75;10.52;;;0.40;99.90;;;;;;5103061;28;20058;-77
2022/12/12 05:42:55;;;;;;;20.50;10.57;;;0.40;99.90;;;;;;5105155;28;20036;-79
2022/12/12 05:45:21;;;;;;;18.38;10.93;;;0.40;99.90;;;;;;5085860;28;20505;-79
2022/12/12 05:47:46;;;;;;;20.13;10.80;;;0.30;99.90;;;;;;5105873;28;20039;-80
2022/12/12 05:50:12;;;;;;;19.88;10.85;;;0.70;99.90;;;;;;5103898;28;20052;-81
2022/12/12 05:52:38;;;;;;;23.33;10.93;;;0.40;99.90;;;;;;5087062;28;20036;-82
2022/12/12 05:55:04;;;;;;;19.95;11.02;;;0.40;99.90;;;;;;5087182;28;20040;-83
2022/12/12 05:57:30;;;;;;;21.42;11.02;;;0.40;99.90;;;;;;5085640;28;20085;-80
2022/12/12 05:59:55;;;;;;;22.10;10.90;;;0.40;99.90;;;;;;5088038;28;20040;-82
2022/12/12 06:02:21;;;;;;;21.67;10.45;;;0.40;99.90;;;;;;5068927;28;20086;-82
2022/12/12 06:04:47;;;;;;;16.02;9.45;;;0.30;99.90;;;;;;5104195;28;20079;-82
2022/12/12 06:07:12;;;;;;;23.67;10.70;;;0.30;99.90;;;;;;5103297;28;20036;-82
2022/12/12 06:09:39;;;;;;;21.92;10.52;;;0.30;99.90;;;;;;5086242;28;20051;-82
2022/12/12 06:12:04;;;;;;;19.40;10.60;;;0.30;99.90;;;;;;5087055;28;20084;-82
2022/12/12 06:14:30;;;;;;;20.35;10.98;;;1.30;99.90;;;;;;5072307;28;20127;-79
2022/12/12 06:16:56;;;;;;;21.85;10.93;;;0.30;99.90;;;;;;5091768;28;20054;-80
2022/12/12 06:19:21;;;;;;;23.17;11.32;;;0.30;99.90;;;;;;5106179;28;20043;-81
2022/12/12 06:21:47;;;;;;;20.05;10.60;;;0.30;99.90;;;;;;5091448;28;20456;-81
2022/12/12 06:24:13;;;;;;;21.88;10.27;;;0.30;99.90;;;;;;5106482;28;20328;-81
2022/12/12 06:26:39;;;;;;;21.13;11.20;;;0.20;99.90;;;;;;5108441;28;20040;-81
2022/12/12 06:29:04;;;;;;;21.60;11.38;;;1.20;99.90;;;;;;5108663;28;20041;-81
2022/12/12 06:31:30;;;;;;;22.80;11.57;;;0.20;99.90;;;;;;5107889;28;20050;-81
2022/12/12 06:33:56;;;;;;;26.33;11.55;;;0.20;99.90;;;;;;5090355;28;20126;-82
2022/12/12 06:36:23;;;;;;;25.65;12.15;;;0.20;99.90;;;;;;5106256;28;20387;-82
2022/12/12 06:38:55;;;;;;;20.27;11.07;;;0.20;99.90;;;;;;5107602;28;20036;-83
2022/12/12 06:41:21;;;;;;;21.77;11.07;;;0.20;99.90;;;;;;5106410;28;20555;-83
2022/12/12 06:43:47;;;;;;;22.10;10.73;;;0.20;99.90;;;;;;5105969;28;20086;-82
2022/12/12 06:46:20;;;;;;;22.73;12.20;;;0.20;99.90;;;;;;5090014;28;20079;-83
2022/12/12 06:48:46;;;;;;;14.32;8.40;;;0.30;99.90;;;;;;5104978;28;20047;-83
2022/12/12 06:51:21;;;;;;;22.27;12.05;;;0.30;99.90;;;;;;5090118;28;20039;-83
2022/12/12 06:53:48;;;;;;;22.98;11.07;;;0.10;99.90;;;;;;5105261;28;20047;-83
2022/12/12 06:56:20;;;;;;;27.35;11.65;;;1.00;99.90;;;;;;5107127;28;20040;-83
2022/12/12 06:58:46;;;;;;;22.83;11.60;;;0.30;99.90;;;;;;5106057;28;20039;-83
2022/12/12 07:01:13;;;;;;;23.88;12.07;;;0.30;99.90;;;;;;5088219;28;20058;-83
2022/12/12 07:03:39;;;;;;;26.30;13.73;;;0.30;99.90;;;;;;5089465;28;20050;-82
2022/12/12 07:06:06;;;;;;;24.45;12.48;;;0.30;99.90;;;;;;5105830;28;20039;-83
2022/12/12 07:08:33;;;;;;;23.55;11.73;;;0.30;99.90;;;;;;5072946;28;20145;-83
2022/12/12 07:11:04;;;;;;;24.70;12.55;;;0.30;99.90;;;;;;5104793;28;20050;-83
2022/12/12 07:13:30;;;;;;;23.13;12.02;;;0.30;99.90;;;;;;5106309;28;20514;-82
2022/12/12 07:15:55;;;;;;;25.40;12.05;;;0.30;99.90;;;;;;5105698;28;20058;-82
2022/12/12 07:18:21;;;;;;;23.98;11.02;;;0.30;99.90;;;;;;5106797;28;20036;-82
2022/12/12 07:20:47;;;;;;;24.27;12.57;;;0.50;99.90;;;;;;5072498;28;20491;-82
2022/12/12 07:23:13;;;;;;;23.13;12.98;;;0.30;99.90;;;;;;5105092;28;20421;-81
2022/12/12 07:25:41;;;;;;;22.75;11.70;;;0.30;99.90;;;;;;5106519;28;20036;-82
2022/12/12 07:28:08;;;;;;;25.05;12.02;;;0.30;99.90;;;;;;5087858;28;20122;-82
2022/12/12 07:30:37;;;;;;;25.42;12.43;;;0.30;99.90;;;;;;5106321;28;20039;-82
2022/12/12 07:33:03;;;;;;;22.40;12.55;;;0.30;99.90;;;;;;5088262;28;20063;-82
2022/12/12 07:35:29;;;;;;;23.38;12.73;;;0.30;99.90;;;;;;5104604;28;20043;-81
2022/12/12 07:37:55;;;;;;;22.50;11.70;;;0.30;99.90;;;;;;5105098;28;20108;-82
2022/12/12 07:40:21;;;;;;;22.13;10.48;;;0.30;99.90;;;;;;5087533;28;20044;-81
2022/12/12 07:42:47;;;;;;;22.05;11.93;;;0.30;99.90;;;;;;5071898;28;20039;-82
2022/12/12 07:45:13;;;;;;;22.92;12.55;;;0.30;99.90;;;;;;5104302;28;20048;-82
2022/12/12 07:47:38;;;;;;;20.25;10.70;;;0.30;99.90;;;;;;5106250;28;20055;-81
2022/12/12 07:50:05;;;;;;;20.92;11.25;;;0.30;99.90;;;;;;5105275;28;20044;-82
2022/12/12 07:52:30;;;;;;;24.10;12.30;;;0.30;99.90;;;;;;5087633;28;20051;-82
2022/12/12 07:54:56;;;;;;;21.70;11.30;;;0.30;99.90;;;;;;5105347;28;20051;-82
2022/12/12 07:57:22;;;;;;;25.40;12.63;;;0.30;99.90;;;;;;5087637;28;20039;-81
2022/12/12 07:59:47;;;;;;;26.70;13.90;;;0.30;99.90;;;;;;5088331;28;20498;-82
2022/12/12 08:02:13;;;;;;;26.75;12.93;;;0.30;99.90;;;;;;5104110;28;20453;-82
2022/12/12 08:04:39;;;;;;;25.25;12.57;;;0.30;99.90;;;;;;5105772;28;20047;-82
2022/12/12 08:07:04;;;;;;;23.73;13.00;;;0.30;99.90;;;;;;5087734;28;20032;-82
2022/12/12 08:09:30;;;;;;;25.20;13.57;;;0.30;99.90;;;;;;5070327;28;20506;-82
2022/12/12 08:11:57;;;;;;;28.98;13.15;;;0.30;99.90;;;;;;5104635;28;20416;-82
2022/12/12 08:14:23;;;;;;;22.55;11.90;;;0.30;99.90;;;;;;5070464;28;20454;-83
2022/12/12 08:16:49;;;;;;;28.00;12.63;;;0.30;99.90;;;;;;5088379;28;20043;-82
2022/12/12 08:19:15;;;;;;;24.13;11.52;;;0.30;99.90;;;;;;5087180;28;20046;-82
2022/12/12 08:21:41;;;;;;;24.45;12.23;;;0.30;99.90;;;;;;5071490;28;20336;-82
2022/12/12 08:24:11;;;;;;;27.52;12.32;;;0.40;99.90;;;;;;5053543;28;20075;-82
2022/12/12 08:26:38;;;;;;;27.75;11.68;;;0.40;99.90;;;;;;5104554;28;20152;-82
2022/12/12 08:29:04;;;;;;;28.08;11.45;;;0.40;99.90;;;;;;5070703;28;20054;-82
2022/12/12 08:31:29;;;;;;;20.77;11.00;;;0.40;99.90;;;;;;5103374;28;20458;-83
2022/12/12 08:33:56;;;;;;;23.50;11.77;;;0.50;99.90;;;;;;5070844;28;20040;-82
2022/12/12 08:36:24;;;;;;;19.48;10.52;;;0.50;99.90;;;;;;5085860;28;20054;-82
2022/12/12 08:38:51;;;;;;;20.58;10.10;;;0.50;99.90;;;;;;5104892;28;20111;-82
2022/12/12 08:41:17;;;;;;;22.73;12.05;;;0.60;99.90;;;;;;5103800;28;20048;-82
2022/12/12 08:43:43;;;;;;;22.17;11.15;;;0.60;99.90;;;;;;5104006;28;20085;-82
2022/12/12 08:46:11;;;;;;;17.23;10.13;;;0.60;99.90;;;;;;5104932;28;20497;-83
2022/12/12 08:48:36;;;;;;;20.02;10.75;;;0.70;99.90;;;;;;5103695;28;20180;-83
2022/12/12 08:51:02;;;;;;;21.58;11.60;;;1.70;99.90;;;;;;5070661;28;20122;-82
2022/12/12 08:53:28;;;;;;;24.42;11.07;;;0.70;99.90;;;;;;5103413;28;20172;-82
2022/12/12 08:55:54;;;;;;;20.85;10.77;;;0.80;99.90;;;;;;5088292;28;20044;-82
2022/12/12 08:58:20;;;;;;;21.40;11.18;;;0.80;99.90;;;;;;5103578;28;20114;-82
2022/12/12 09:00:47;;;;;;;18.95;11.13;;;0.80;99.90;;;;;;5087425;28;20125;-82
2022/12/12 09:03:13;;;;;;;21.65;10.00;;;0.80;99.90;;;;;;5104117;28;20043;-82
2022/12/12 09:05:43;;;;;;;19.70;10.48;;;0.90;99.90;;;;;;5086340;28;20036;-82
2022/12/12 09:08:11;;;;;;;20.40;10.20;;;0.90;99.90;;;;;;5089551;27;20155;-82
2022/12/12 09:10:37;;;;;;;22.23;11.18;;;0.90;99.90;;;;;;5106864;28;20125;-82
2022/12/12 09:13:04;;;;;;;17.30;10.68;;;0.90;99.90;;;;;;5090746;28;20081;-82
2022/12/12 09:15:29;;;;;;;18.60;11.02;;;0.90;99.90;;;;;;5089639;28;20043;-82
2022/12/12 09:17:55;;;;;;;23.75;11.85;;;1.60;99.90;;;;;;5090439;28;20076;-82
2022/12/12 09:20:21;;;;;;;19.13;10.27;;;1.00;99.90;;;;;;5090675;28;20332;-82
2022/12/12 09:22:46;;;;;;;17.45;10.43;;;1.00;99.90;;;;;;5089833;28;20404;-82
2022/12/12 09:25:12;;;;;;;21.98;10.88;;;1.00;99.90;;;;;;5090825;28;20043;-82
2022/12/12 09:27:37;;;;;;;20.30;11.07;;;1.10;99.90;;;;;;5089553;28;20082;-82
2022/12/12 09:30:03;;;;;;;20.20;11.73;;;1.10;99.90;;;;;;5091292;28;20046;-82
2022/12/12 09:32:29;;;;;;;21.80;11.57;;;1.10;99.90;;;;;;5089451;28;20090;-82
2022/12/12 09:34:55;;;;;;;20.15;11.38;;;1.10;99.90;;;;;;5090543;28;20043;-83
2022/12/12 09:37:20;;;;;;;23.88;10.45;;;1.10;99.90;;;;;;5090268;28;20054;-82
2022/12/12 09:39:46;;;;;;;24.95;11.75;;;1.10;99.90;;;;;;5073227;28;20532;-82
2022/12/12 09:42:36;;;;;;;24.05;10.50;;;1.20;99.90;;;;;;5073685;28;20043;-88
2022/12/12 09:45:05;;;;;;;23.05;11.68;;;1.20;99.90;;;;;;5079515;28;20451;-82
2022/12/12 09:47:41;;;;;;;17.92;9.85;;;1.20;99.90;;;;;;5108202;27;20043;-83
2022/12/12 09:50:26;;;;;;;22.80;11.23;;;1.20;99.90;;;;;;5110852;27;20584;-83
2022/12/12 09:52:55;;;;;;;19.05;11.15;;;1.30;99.90;;;;;;5109873;27;20043;-83
2022/12/12 09:55:43;;;;;;;17.50;10.07;;;1.30;99.90;;;;;;5110809;27;20057;-82
2022/12/12 09:58:20;;;;;;;20.73;9.98;;;1.30;99.90;;;;;;5110306;27;20126;-83
2022/12/12 10:00:54;;;;;;;17.95;10.63;;;1.30;99.90;;;;;;5111011;27;20052;-83
2022/12/12 10:03:29;;;;;;;;;;;1.30;99.90;;;;;;5094133;27;20043;-83
2022/12/12 10:06:21;;;;;;;20.48;10.57;;;1.30;99.90;;;;;;5109606;27;19920;-82
2022/12/12 10:09:09;;;;;;;18.95;11.27;;;1.40;99.90;;;;;;5107628;27;20062;-83
2022/12/12 10:11:53;;;;;;;19.65;11.02;;;1.40;99.90;;;;;;5110385;27;20054;-83
2022/12/12 10:14:44;;;;;;;19.13;10.13;;;1.40;99.90;;;;;;5110009;27;20078;-83
2022/12/12 10:17:27;;;;;;;19.60;11.38;;;1.50;99.90;;;;;;5094283;27;20057;-83
2022/12/12 10:20:00;;;;;;;21.80;10.60;;;1.40;99.90;;;;;;5110317;27;20552;-83
2022/12/12 10:22:39;;;;;;;27.42;10.85;;;1.50;99.90;;;;;;5109972;27;20130;-83
2022/12/12 10:25:22;;;;;;;18.00;10.73;;;1.50;99.90;;;;;;5093419;27;20506;-83
2022/12/12 10:28:15;;;;;;;19.52;11.38;;;1.50;99.90;;;;;;5109401;27;20494;-83
2022/12/12 10:31:00;;;;;;;;;;;1.60;99.90;;;;;;5108401;27;20083;-84
2022/12/12 10:33:39;;;;;;;15.57;9.27;;;1.60;99.90;;;;;;5110822;27;19919;-84
2022/12/12 10:36:32;;;;;;;18.45;9.77;;;1.60;99.90;;;;;;5109321;27;20085;-84
2022/12/12 10:39:14;;;;;;;18.38;9.75;;;1.70;99.90;;;;;;5110846;27;20043;-83
2022/12/12 10:41:47;;;;;;;19.48;10.32;;;1.80;99.90;;;;;;5092994;27;20051;-83
2022/12/12 10:44:34;;;;;;;17.07;9.20;;;1.80;99.90;;;;;;5109182;27;20051;-83
2022/12/12 10:47:05;;;;;;;21.08;10.90;;;1.90;99.90;;;;;;5110531;27;20085;-83
2022/12/12 10:49:31;;;;;;;17.58;10.65;;;2.00;99.90;;;;;;5109609;27;20055;-83
2022/12/12 10:52:00;;;;;;;16.38;9.48;;;2.10;99.90;;;;;;5110275;27;20062;-83
2022/12/12 10:54:28;;;;;;;13.70;8.70;;;2.10;99.90;;;;;;5110092;27;20403;-83
2022/12/12 10:57:20;;;;;;;16.05;8.90;;;2.10;99.90;;;;;;5075861;27;20409;-83
2022/12/12 10:59:57;;;;;;;14.10;7.65;;;2.20;99.90;;;;;;5109328;27;20043;-83
2022/12/12 11:02:41;;;;;;;16.15;9.45;;;2.20;99.90;;;;;;5109063;27;20043;-83
2022/12/12 11:05:23;;;;;;;15.75;8.70;;;2.20;99.90;;;;;;5093011;27;20463;-83
2022/12/12 11:08:05;;;;;;;17.80;8.98;;;2.20;99.90;;;;;;5109615;27;20047;-82
2022/12/12 11:10:34;;;;;;;19.08;10.02;;;2.10;99.90;;;;;;5092262;27;20493;-82
2022/12/12 11:13:14;;;;;;;14.68;9.13;;;2.50;99.90;;;;;;5109806;27;20039;-83
2022/12/12 11:15:44;;;;;;;15.00;8.52;;;2.00;99.90;;;;;;5092131;27;20082;-84
2022/12/12 11:18:15;;;;;;;16.90;9.07;;;2.00;99.90;;;;;;5091946;27;20041;-83
2022/12/12 11:20:46;;;;;;;16.02;8.30;;;2.00;99.90;;;;;;5092660;27;20051;-83
2022/12/12 11:23:21;;;;;;;15.75;9.48;;;2.10;99.90;;;;;;5108835;27;20130;-83
2022/12/12 11:25:57;;;;;;;15.55;9.45;;;2.10;99.90;;;;;;5092536;27;20081;-84
2022/12/12 11:28:25;;;;;;;13.73;8.57;;;2.20;99.90;;;;;;5091997;27;20513;-83
2022/12/12 11:30:54;;;;;;;15.18;9.23;;;2.10;99.90;;;;;;5092400;27;20178;-83
2022/12/12 11:33:26;;;;;;;15.57;8.30;;;2.10;99.90;;;;;;5075093;27;20039;-84
2022/12/12 11:35:54;;;;;;;16.08;9.18;;;2.10;99.90;;;;;;5108333;27;20124;-83
2022/12/12 11:38:27;;;;;;;14.30;8.45;;;3.10;99.90;;;;;;5109114;27;20050;-83
2022/12/12 11:41:02;;;;;;;18.77;10.07;;;2.60;99.90;;;;;;5091461;27;20043;-83
2022/12/12 11:43:34;;;;;;;16.23;8.93;;;2.20;99.90;;;;;;5109604;27;20054;-83
2022/12/12 11:46:04;;;;;;;15.00;8.80;;;2.20;99.90;;;;;;5108540;27;20533;-83
2022/12/12 11:48:34;;;;;;;15.25;8.57;;;2.10;99.90;;;;;;5091618;27;20402;-83
2022/12/12 11:51:00;;;;;;;14.88;8.35;;;2.20;99.90;;;;;;5108827;27;20043;-83
2022/12/12 11:53:26;;;;;;;15.70;8.38;;;2.10;99.90;;;;;;5091034;27;20043;-83
2022/12/12 11:56:01;;;;;;;12.82;8.38;;;3.30;99.90;;;;;;5108976;27;20058;-83
2022/12/12 11:58:37;;;;;;;16.15;8.60;;;2.20;99.90;;;;;;5091150;27;20047;-82
2022/12/12 12:01:09;;;;;;;15.00;8.75;;;2.20;99.90;;;;;;5091103;27;20076;-82
2022/12/12 12:03:52;;;;;;;16.90;9.23;;;2.20;99.90;;;;;;5108468;27;20050;-82
2022/12/12 12:06:56;;;;;;;20.35;11.48;;;2.30;99.90;;;;;;5090779;27;20043;-82
2022/12/12 12:09:53;;;;;;;20.27;11.60;;;2.30;99.90;;;;;;5050712;27;20094;-83
2022/12/12 12:12:56;;;;;;;19.40;10.68;;;2.30;99.90;;;;;;5108147;27;20059;-84
2022/12/12 12:15:33;;;;;;;17.58;10.07;;;2.40;99.90;;;;;;5107880;27;20118;-83
2022/12/12 12:18:34;;;;;;;18.15;10.65;;;2.30;99.90;;;;;;5091722;27;20054;-83
2022/12/12 12:21:25;;;;;;;17.90;10.45;;;2.20;99.90;;;;;;5080474;27;20077;-83
2022/12/12 12:24:03;;;;;;;20.38;12.20;;;2.20;99.90;;;;;;5107474;27;20082;-86
2022/12/12 12:27:00;;;;;;;18.70;10.57;;;2.10;99.90;;;;;;5091045;27;20043;-86
2022/12/12 12:29:48;;;;;;;17.95;11.25;;;2.10;99.90;;;;;;5091164;27;20046;-86
2022/12/12 12:32:39;;;;;;;20.70;11.88;;;2.10;99.90;;;;;;5107931;27;20097;-86
2022/12/12 12:35:04;;;;;;;18.92;10.85;;;2.10;99.90;;;;;;5108193;27;20082;-86
2022/12/12 12:37:38;;;;;;;21.45;12.02;;;2.60;99.90;;;;;;5091199;27;20086;-85
2022/12/12 12:40:07;;;;;;;22.17;11.48;;;2.00;99.90;;;;;;5106858;27;20565;-84
2022/12/12 12:43:13;;;;;;;21.90;12.07;;;2.10;99.90;;;;;;5090838;27;20043;-85
2022/12/12 12:45:58;;;;;;;18.25;11.00;;;2.10;99.90;;;;;;5090246;27;20051;-84
2022/12/12 12:48:38;;;;;;;18.63;11.25;;;2.10;99.90;;;;;;5107387;27;20046;-84
2022/12/12 12:51:17;;;;;;;19.73;11.98;;;2.10;99.90;;;;;;5107744;27;20087;-84
2022/12/12 12:53:58;;;;;;;19.98;12.05;;;2.10;99.90;;;;;;5090524;27;20031;-84
2022/12/12 12:56:27;;;;;;;19.88;11.93;;;2.20;99.90;;;;;;5090918;27;20035;-84
2022/12/12 12:59:00;;;;;;;23.65;12.52;;;2.10;99.90;;;;;;5107671;28;20036;-83
2022/12/12 13:01:40;;;;;;;22.35;12.10;;;2.10;99.90;;;;;;5089841;28;20053;-84
2022/12/12 13:04:35;;;;;;;22.75;12.05;;;2.10;99.90;;;;;;5107543;28;20069;-83
2022/12/12 13:07:26;;;;;;;24.77;12.13;;;2.00;99.90;;;;;;5108061;28;20096;-87
2022/12/12 13:10:05;;;;;;;21.60;12.77;;;2.00;99.90;;;;;;5106978;28;20047;-84
2022/12/12 13:13:13;;;;;;;23.38;13.40;;;2.00;99.90;;;;;;5090772;28;20051;-84
2022/12/12 13:15:51;;;;;;;26.80;14.45;;;2.00;99.90;;;;;;5090660;28;20047;-82